Time;durP1;ratioP1;P1;durP2;ratioP2;P2;SDS_P1;SDS_P2;PMS_P1;PMS_P2;Temp;Humidity;BMP_temperature;BMP_pressure;BME280_temperature;BME280_humidity;BME280_pressure;Samples;Min_cycle;Max_cycle;Signal;HPM_P1;HPM_P2
2021/08/18 00:01:47;;;;;;;29.35;20.13;;;24.50;62.80;;;;;;5026651;28;20029;-64
2021/08/18 00:04:13;;;;;;;29.05;19.55;;;24.50;62.90;;;;;;5035708;28;20017;-63
2021/08/18 00:06:38;;;;;;;26.85;20.42;;;24.50;63.20;;;;;;5036392;28;20026;-63
2021/08/18 00:09:05;;;;;;;26.83;19.73;;;24.50;63.40;;;;;;5035750;28;20436;-63
2021/08/18 00:11:31;;;;;;;28.50;19.67;;;24.50;63.60;;;;;;5035789;28;20072;-63
2021/08/18 00:13:57;;;;;;;28.77;21.23;;;24.40;63.80;;;;;;5034936;28;20029;-63
2021/08/18 00:16:25;;;;;;;23.73;18.70;;;24.40;64.00;;;;;;5033502;28;20375;-63
2021/08/18 00:18:52;;;;;;;29.67;20.00;;;24.40;64.10;;;;;;5028207;28;20025;-63
2021/08/18 00:21:22;;;;;;;25.05;18.75;;;24.30;64.10;;;;;;5035402;28;20423;-63
2021/08/18 00:23:49;;;;;;;26.65;19.25;;;24.30;64.20;;;;;;5035541;28;20029;-63
2021/08/18 00:26:15;;;;;;;27.98;19.02;;;24.30;64.50;;;;;;5035419;28;20033;-63
2021/08/18 00:28:41;;;;;;;25.30;17.77;;;24.20;64.50;;;;;;5034757;28;20041;-63
2021/08/18 00:31:07;;;;;;;21.88;17.48;;;24.20;64.60;;;;;;5035342;28;20382;-63
2021/08/18 00:33:33;;;;;;;26.45;17.13;;;24.20;64.60;;;;;;5034734;28;20018;-63
2021/08/18 00:35:58;;;;;;;28.05;17.70;;;24.20;64.50;;;;;;5035396;28;20108;-63
2021/08/18 00:38:24;;;;;;;23.80;18.50;;;24.20;64.50;;;;;;5025970;28;20065;-63
2021/08/18 00:40:51;;;;;;;23.63;16.60;;;24.20;64.70;;;;;;5015650;28;20057;-63
2021/08/18 00:43:18;;;;;;;24.05;17.58;;;24.20;64.60;;;;;;5015550;28;20021;-63
2021/08/18 00:45:44;;;;;;;23.45;17.33;;;24.20;64.70;;;;;;5015527;28;20068;-63
2021/08/18 00:48:10;;;;;;;23.15;17.20;;;24.20;64.80;;;;;;5021064;28;20083;-63
2021/08/18 00:50:35;;;;;;;22.20;16.52;;;24.20;64.80;;;;;;5034338;28;20029;-63
2021/08/18 00:53:01;;;;;;;26.65;16.73;;;24.10;65.00;;;;;;5035085;28;20044;-63
2021/08/18 00:55:27;;;;;;;22.00;16.65;;;24.20;64.90;;;;;;5034729;28;20492;-63
2021/08/18 00:57:54;;;;;;;24.10;17.40;;;24.20;64.80;;;;;;5030398;28;20098;-63
2021/08/18 01:00:23;;;;;;;23.80;16.80;;;24.10;64.60;;;;;;5015455;28;20470;-63
2021/08/18 01:02:49;;;;;;;23.65;16.52;;;24.10;64.60;;;;;;5015159;28;20029;-63
2021/08/18 01:05:27;;;;;;;20.13;16.02;;;24.10;64.60;;;;;;5015094;28;20026;-63
2021/08/18 01:07:55;;;;;;;19.90;15.45;;;24.10;64.50;;;;;;5019632;28;20026;-63
2021/08/18 01:10:23;;;;;;;22.38;16.67;;;24.10;64.70;;;;;;5034331;28;20037;-63
2021/08/18 01:12:49;;;;;;;23.58;16.13;;;24.10;64.90;;;;;;5034783;28;20065;-63
2021/08/18 01:15:17;;;;;;;20.20;15.82;;;24.10;64.90;;;;;;5033128;28;20033;-63
2021/08/18 01:17:54;;;;;;;22.98;16.45;;;24.10;65.10;;;;;;5034671;28;20021;-63
2021/08/18 01:20:26;;;;;;;21.98;15.23;;;24.10;65.20;;;;;;5034679;28;20159;-63
2021/08/18 01:22:52;;;;;;;21.52;16.15;;;24.10;65.50;;;;;;5034637;28;20021;-63
2021/08/18 01:25:18;;;;;;;23.38;16.20;;;24.00;65.50;;;;;;5029209;28;20032;-63
2021/08/18 01:27:51;;;;;;;20.55;16.00;;;24.00;65.40;;;;;;5031257;28;20034;-63
2021/08/18 01:30:19;;;;;;;19.80;16.75;;;24.00;65.50;;;;;;5034287;28;20049;-63
2021/08/18 01:32:53;;;;;;;22.10;16.25;;;24.00;65.70;;;;;;5034375;28;20116;-64
2021/08/18 01:35:25;;;;;;;28.08;17.65;;;24.00;65.60;;;;;;5023587;28;20032;-63
2021/08/18 01:37:52;;;;;;;24.83;17.08;;;24.00;65.50;;;;;;5014432;28;20022;-63
2021/08/18 01:40:19;;;;;;;24.02;17.00;;;23.90;65.50;;;;;;5014464;28;20014;-63
2021/08/18 01:42:45;;;;;;;25.63;18.25;;;23.90;65.50;;;;;;5014978;28;20445;-63
2021/08/18 01:45:23;;;;;;;25.38;18.17;;;23.90;65.50;;;;;;5024188;28;20053;-63
2021/08/18 01:47:49;;;;;;;25.10;17.58;;;23.90;65.30;;;;;;5024884;28;20033;-63
2021/08/18 01:50:15;;;;;;;24.85;17.33;;;23.90;65.20;;;;;;5016187;28;20116;-63
2021/08/18 01:52:42;;;;;;;24.33;17.73;;;23.90;65.20;;;;;;5034039;28;20053;-63
2021/08/18 01:55:09;;;;;;;24.52;17.75;;;23.90;65.40;;;;;;5031178;28;20384;-63
2021/08/18 01:57:34;;;;;;;23.98;18.40;;;23.90;65.70;;;;;;5033414;28;20024;-63
2021/08/18 02:00:00;;;;;;;26.58;18.95;;;23.90;65.70;;;;;;5032519;28;20029;-63
2021/08/18 02:02:29;;;;;;;27.90;19.35;;;23.80;65.70;;;;;;5033327;28;20029;-63
2021/08/18 02:04:56;;;;;;;27.80;20.20;;;23.90;65.80;;;;;;5026852;28;20022;-63
2021/08/18 02:07:22;;;;;;;25.17;18.95;;;23.80;65.70;;;;;;5013882;28;20481;-63
2021/08/18 02:09:47;;;;;;;26.45;19.42;;;23.80;65.80;;;;;;5013908;28;20022;-63
2021/08/18 02:12:13;;;;;;;25.63;19.40;;;23.80;65.90;;;;;;5013768;28;20057;-63
2021/08/18 02:14:40;;;;;;;24.10;18.10;;;23.80;65.90;;;;;;5026249;28;20061;-63
2021/08/18 02:17:06;;;;;;;27.55;19.98;;;23.70;65.90;;;;;;5027623;28;20061;-63
2021/08/18 02:19:32;;;;;;;25.60;19.42;;;23.70;66.10;;;;;;5033647;28;20025;-63
2021/08/18 02:21:58;;;;;;;25.05;18.27;;;23.70;66.10;;;;;;5033378;28;20025;-63
2021/08/18 02:24:24;;;;;;;31.30;19.17;;;23.70;66.30;;;;;;5031295;28;20108;-63
2021/08/18 02:26:49;;;;;;;24.65;19.73;;;23.60;66.90;;;;;;5013642;28;20065;-63
2021/08/18 02:29:15;;;;;;;27.17;19.30;;;23.60;66.40;;;;;;5013717;28;20077;-63
2021/08/18 02:31:41;;;;;;;25.42;19.02;;;23.60;66.60;;;;;;5013420;28;20042;-63
2021/08/18 02:34:09;;;;;;;29.48;20.35;;;23.60;66.70;;;;;;5014125;28;20025;-63
2021/08/18 02:36:35;;;;;;;24.95;19.65;;;23.60;66.70;;;;;;5014183;28;20105;-63
2021/08/18 02:39:02;;;;;;;27.95;19.92;;;23.50;66.70;;;;;;5013605;28;20133;-63
2021/08/18 02:41:28;;;;;;;24.90;18.60;;;23.50;66.90;;;;;;5013484;28;20022;-63
2021/08/18 02:43:53;;;;;;;27.23;19.42;;;23.50;66.60;;;;;;5013339;28;20498;-63
2021/08/18 02:46:19;;;;;;;23.40;17.90;;;23.50;66.60;;;;;;5030143;28;20065;-63
2021/08/18 02:48:44;;;;;;;22.55;17.35;;;23.50;66.50;;;;;;5033056;28;20068;-63
2021/08/18 02:51:10;;;;;;;22.10;17.98;;;23.50;66.40;;;;;;5016160;28;20025;-63
2021/08/18 02:53:36;;;;;;;25.40;17.63;;;23.50;66.40;;;;;;5013346;28;20128;-63
2021/08/18 02:56:02;;;;;;;24.02;16.60;;;23.50;66.40;;;;;;5013519;28;20033;-63
2021/08/18 02:58:28;;;;;;;21.85;16.52;;;23.40;66.60;;;;;;5013443;28;20050;-63
2021/08/18 03:00:53;;;;;;;24.30;17.95;;;23.40;66.70;;;;;;5013197;28;20061;-63
2021/08/18 03:03:19;;;;;;;23.45;17.88;;;23.40;66.90;;;;;;5013271;28;20026;-63
2021/08/18 03:05:45;;;;;;;20.77;15.07;;;23.30;67.00;;;;;;5022613;28;20032;-63
2021/08/18 03:08:11;;;;;;;18.50;14.38;;;23.30;67.30;;;;;;5030209;28;20022;-63
2021/08/18 03:10:37;;;;;;;17.70;12.93;;;23.20;67.80;;;;;;5034417;28;20022;-63
2021/08/18 03:13:03;;;;;;;20.38;12.98;;;23.20;68.30;;;;;;5037137;28;20025;-63
2021/08/18 03:15:29;;;;;;;15.73;12.50;;;23.20;68.80;;;;;;5027385;28;20049;-63
2021/08/18 03:17:54;;;;;;;15.80;11.43;;;23.20;69.30;;;;;;5017079;28;20054;-64
2021/08/18 03:20:20;;;;;;;15.60;12.00;;;23.20;69.90;;;;;;5017081;28;20049;-63
2021/08/18 03:22:46;;;;;;;17.52;11.85;;;23.20;70.20;;;;;;5023641;28;20097;-63
2021/08/18 03:25:12;;;;;;;16.00;13.05;;;23.20;70.50;;;;;;5028863;28;20022;-63
2021/08/18 03:27:38;;;;;;;19.48;13.38;;;23.20;71.40;;;;;;5017167;28;20022;-63
2021/08/18 03:30:06;;;;;;;18.60;13.00;;;23.20;71.40;;;;;;5036061;28;20133;-63
2021/08/18 03:32:32;;;;;;;17.52;12.15;;;23.20;71.60;;;;;;5036552;28;20120;-63
2021/08/18 03:34:58;;;;;;;16.65;13.50;;;23.20;72.20;;;;;;5031681;28;20050;-63
2021/08/18 03:37:23;;;;;;;14.63;11.20;;;23.30;72.60;;;;;;5017168;28;20420;-63
2021/08/18 03:39:49;;;;;;;15.02;9.65;;;23.30;72.80;;;;;;5024927;28;20074;-63
2021/08/18 03:42:15;;;;;;;15.82;9.50;;;23.40;73.00;;;;;;5018732;28;20060;-63
2021/08/18 03:44:41;;;;;;;11.40;8.82;;;23.40;73.20;;;;;;5018724;28;20029;-63
2021/08/18 03:47:06;;;;;;;10.50;8.10;;;23.50;73.30;;;;;;5036202;28;20499;-63
2021/08/18 03:49:32;;;;;;;10.70;7.22;;;23.50;73.30;;;;;;5036018;28;20026;-64
2021/08/18 03:51:58;;;;;;;9.65;7.45;;;23.60;73.30;;;;;;5036123;28;20026;-63
2021/08/18 03:54:23;;;;;;;10.30;7.57;;;23.60;73.20;;;;;;5036215;28;20472;-63
2021/08/18 03:56:49;;;;;;;9.55;6.93;;;23.60;73.30;;;;;;5023832;28;20473;-63
2021/08/18 03:59:15;;;;;;;10.32;7.15;;;23.60;73.40;;;;;;5018309;28;20037;-63
2021/08/18 04:01:40;;;;;;;10.88;7.70;;;23.70;73.40;;;;;;5016310;28;20030;-63
2021/08/18 04:04:06;;;;;;;11.05;7.10;;;23.70;73.30;;;;;;5016175;28;20064;-63
2021/08/18 04:06:32;;;;;;;10.43;7.82;;;23.70;73.30;;;;;;5033291;28;20026;-63
2021/08/18 04:08:58;;;;;;;8.07;6.63;;;23.70;73.40;;;;;;5034757;28;20496;-63
2021/08/18 04:11:25;;;;;;;9.38;6.45;;;23.80;73.50;;;;;;5035850;28;20022;-63
2021/08/18 04:13:50;;;;;;;8.38;6.45;;;23.80;73.30;;;;;;5034884;28;20021;-63
2021/08/18 04:16:16;;;;;;;8.40;6.57;;;23.90;73.30;;;;;;5020559;28;20109;-63
2021/08/18 04:18:42;;;;;;;8.05;6.97;;;24.00;73.40;;;;;;5016048;28;20022;-63
2021/08/18 04:21:07;;;;;;;8.50;6.45;;;24.10;73.40;;;;;;5015788;28;20384;-63
2021/08/18 04:23:33;;;;;;;8.55;5.68;;;24.10;73.30;;;;;;5015990;28;20109;-63
2021/08/18 04:25:59;;;;;;;7.38;5.05;;;24.30;73.10;;;;;;5021589;28;20037;-64
2021/08/18 04:28:24;;;;;;;7.43;5.30;;;24.40;72.40;;;;;;5015990;28;20033;-63
2021/08/18 04:30:50;;;;;;;6.85;5.70;;;24.50;72.00;;;;;;5021071;28;20045;-63
2021/08/18 04:33:16;;;;;;;7.65;5.32;;;24.50;71.90;;;;;;5017871;28;20497;-63
2021/08/18 04:35:42;;;;;;;7.10;5.78;;;24.60;71.70;;;;;;5024650;28;20033;-63
2021/08/18 04:38:07;;;;;;;6.28;4.95;;;24.50;71.70;;;;;;5035096;28;20029;-63
2021/08/18 04:40:33;;;;;;;7.45;5.20;;;24.60;71.70;;;;;;5035468;28;20029;-63
2021/08/18 04:42:59;;;;;;;8.32;4.93;;;24.60;71.70;;;;;;5035777;28;20037;-64
2021/08/18 04:45:25;;;;;;;7.15;4.95;;;24.70;71.60;;;;;;5030764;28;20034;-63
2021/08/18 04:47:51;;;;;;;6.22;5.30;;;25.00;72.10;;;;;;5033816;28;20096;-63
2021/08/18 04:50:17;;;;;;;7.72;4.80;;;25.10;70.50;;;;;;5015915;28;20029;-63
2021/08/18 04:52:43;;;;;;;9.18;5.60;;;25.20;70.10;;;;;;5014335;28;20401;-63
2021/08/18 04:55:10;;;;;;;6.10;5.03;;;25.20;70.10;;;;;;5030350;28;20108;-63
2021/08/18 04:57:36;;;;;;;6.20;5.10;;;25.30;69.80;;;;;;5030671;28;20033;-64
2021/08/18 05:00:02;;;;;;;6.28;5.55;;;25.30;69.70;;;;;;5030722;28;20021;-63
2021/08/18 05:02:28;;;;;;;9.45;6.10;;;25.30;69.60;;;;;;5036972;28;20074;-63
2021/08/18 05:04:54;;;;;;;9.90;5.32;;;25.30;69.60;;;;;;5040727;28;20486;-64
2021/08/18 05:07:19;;;;;;;8.15;5.32;;;25.40;69.50;;;;;;5034253;28;20377;-63
2021/08/18 05:09:45;;;;;;;7.75;5.90;;;25.50;69.40;;;;;;5032924;28;20037;-63
2021/08/18 05:12:10;;;;;;;6.70;5.60;;;25.50;69.10;;;;;;5029521;28;20036;-63
2021/08/18 05:14:36;;;;;;;8.55;5.85;;;25.60;68.70;;;;;;5033940;28;20017;-63
2021/08/18 05:17:02;;;;;;;6.20;5.60;;;25.70;68.60;;;;;;5033024;28;20025;-63
2021/08/18 05:19:28;;;;;;;7.80;5.55;;;25.70;68.50;;;;;;5028288;28;20029;-64
2021/08/18 05:21:53;;;;;;;8.32;5.75;;;25.70;68.30;;;;;;5030548;28;20040;-64
2021/08/18 05:24:19;;;;;;;8.20;5.80;;;25.80;68.30;;;;;;5028016;28;20025;-63
2021/08/18 05:26:44;;;;;;;9.77;5.93;;;25.80;68.10;;;;;;5031014;28;20492;-63
2021/08/18 05:29:10;;;;;;;6.13;5.20;;;25.80;68.20;;;;;;5033251;28;20033;-63
2021/08/18 05:31:36;;;;;;;6.90;5.28;;;25.80;67.90;;;;;;5020891;28;20053;-63
2021/08/18 05:34:01;;;;;;;6.95;5.32;;;25.90;67.90;;;;;;5033699;28;20096;-63
2021/08/18 05:36:27;;;;;;;8.15;6.70;;;26.00;67.50;;;;;;5026059;28;20108;-62
2021/08/18 05:38:53;;;;;;;8.40;5.40;;;26.30;66.70;;;;;;5031161;28;20433;-62
2021/08/18 05:41:19;;;;;;;10.98;6.28;;;26.60;66.30;;;;;;5025549;28;20050;-62
2021/08/18 05:43:45;;;;;;;9.68;6.20;;;26.80;65.80;;;;;;5020825;28;20409;-62
2021/08/18 05:46:12;;;;;;;8.05;5.47;;;26.90;65.50;;;;;;5022013;28;20033;-63
2021/08/18 05:48:38;;;;;;;6.18;5.32;;;27.00;65.30;;;;;;5025656;28;20025;-62
2021/08/18 05:51:07;;;;;;;8.45;6.40;;;27.00;65.20;;;;;;5021489;28;20503;-62
2021/08/18 05:53:33;;;;;;;7.50;5.70;;;27.00;65.20;;;;;;5015711;28;20037;-59
2021/08/18 05:55:59;;;;;;;7.75;6.25;;;27.00;65.40;;;;;;5019910;28;20529;-60
2021/08/18 05:58:24;;;;;;;7.80;5.65;;;27.00;65.30;;;;;;5026759;28;20025;-60
2021/08/18 06:00:50;;;;;;;8.98;6.10;;;27.00;65.30;;;;;;5024471;28;20029;-58
2021/08/18 06:03:16;;;;;;;6.55;5.70;;;27.00;65.20;;;;;;5023046;28;20037;-62
2021/08/18 06:05:42;;;;;;;9.13;5.68;;;27.10;65.30;;;;;;5026888;28;20130;-62
2021/08/18 06:08:07;;;;;;;7.45;5.80;;;27.10;65.90;;;;;;5020701;28;20065;-62
2021/08/18 06:10:34;;;;;;;10.80;5.68;;;27.20;65.10;;;;;;5022506;28;20041;-62
2021/08/18 06:13:03;;;;;;;9.40;5.97;;;27.10;65.00;;;;;;5019486;28;20476;-62
2021/08/18 06:15:29;;;;;;;9.30;5.82;;;27.20;64.90;;;;;;5023189;28;20044;-61
2021/08/18 06:17:55;;;;;;;7.18;5.90;;;27.20;65.00;;;;;;5021969;28;20025;-61
2021/08/18 06:20:21;;;;;;;8.57;5.95;;;27.20;64.90;;;;;;5025637;28;20461;-58
2021/08/18 06:22:48;;;;;;;9.32;6.22;;;27.30;65.00;;;;;;5027033;28;20065;-60
2021/08/18 06:25:14;;;;;;;7.22;5.75;;;27.20;64.80;;;;;;5026615;28;20071;-60
2021/08/18 06:27:40;;;;;;;8.20;6.28;;;27.20;64.70;;;;;;5032211;28;20041;-59
2021/08/18 06:30:08;;;;;;;8.02;5.93;;;27.20;64.80;;;;;;5023896;28;20655;-59
2021/08/18 06:32:34;;;;;;;8.02;6.10;;;27.30;64.80;;;;;;5031006;28;20037;-60
2021/08/18 06:35:00;;;;;;;7.80;5.88;;;27.30;64.80;;;;;;5028794;28;20030;-59
2021/08/18 06:37:26;;;;;;;8.13;6.25;;;27.20;64.70;;;;;;5026635;28;20084;-61
2021/08/18 06:39:52;;;;;;;8.75;6.20;;;27.30;64.70;;;;;;5018109;28;20173;-61
2021/08/18 06:42:19;;;;;;;10.05;6.88;;;27.30;64.70;;;;;;5019961;28;20041;-59
2021/08/18 06:44:48;;;;;;;7.15;6.45;;;27.20;64.50;;;;;;5021165;28;20071;-61
2021/08/18 06:47:14;;;;;;;9.20;7.30;;;27.30;64.60;;;;;;5012859;28;20079;-60
2021/08/18 06:49:40;;;;;;;8.40;6.25;;;27.30;64.40;;;;;;5016983;28;20034;-61
2021/08/18 06:52:05;;;;;;;8.32;6.57;;;27.30;64.30;;;;;;5015172;28;20037;-58
2021/08/18 06:54:31;;;;;;;8.82;6.60;;;27.30;64.30;;;;;;5024027;28;20079;-60
2021/08/18 06:56:57;;;;;;;8.68;6.47;;;27.30;64.50;;;;;;5011290;28;20029;-61
2021/08/18 06:59:23;;;;;;;9.52;6.60;;;27.30;64.30;;;;;;5019578;28;20047;-62
2021/08/18 07:01:49;;;;;;;9.35;6.47;;;27.30;64.30;;;;;;5015080;28;20118;-62
2021/08/18 07:04:14;;;;;;;7.88;6.68;;;27.30;64.20;;;;;;5018313;28;20040;-61
2021/08/18 07:06:40;;;;;;;7.53;6.53;;;27.40;64.30;;;;;;5017209;28;20547;-60
2021/08/18 07:09:06;;;;;;;7.78;6.35;;;27.40;64.30;;;;;;5015235;28;20044;-61
2021/08/18 07:11:32;;;;;;;6.55;5.85;;;27.40;64.50;;;;;;5014900;28;20381;-62
2021/08/18 07:13:59;;;;;;;8.77;6.97;;;27.40;64.70;;;;;;5017347;28;20032;-61
2021/08/18 07:16:29;;;;;;;8.57;6.90;;;27.40;64.40;;;;;;5015993;28;20079;-61
2021/08/18 07:18:56;;;;;;;9.00;6.60;;;27.40;64.90;;;;;;5013144;28;20033;-60
2021/08/18 07:21:22;;;;;;;7.55;6.63;;;27.40;64.30;;;;;;5016028;28;20034;-62
2021/08/18 07:23:49;;;;;;;8.13;6.90;;;27.40;64.20;;;;;;5017883;28;20436;-60
2021/08/18 07:26:16;;;;;;;8.90;6.60;;;27.40;64.30;;;;;;5010969;28;20608;-61
2021/08/18 07:28:42;;;;;;;10.23;7.53;;;27.50;64.20;;;;;;4999524;28;20030;-58
2021/08/18 07:31:08;;;;;;;9.77;6.93;;;27.40;63.80;;;;;;5013000;28;20041;-60
2021/08/18 07:33:34;;;;;;;10.15;7.57;;;27.50;64.00;;;;;;5019024;28;20034;-59
2021/08/18 07:36:00;;;;;;;9.43;7.25;;;27.50;63.80;;;;;;5021112;28;20059;-58
2021/08/18 07:38:26;;;;;;;8.32;6.60;;;27.50;63.70;;;;;;5018294;28;20109;-59
2021/08/18 07:40:51;;;;;;;7.90;6.63;;;27.40;63.80;;;;;;5018709;28;20029;-58
2021/08/18 07:43:17;;;;;;;7.63;6.70;;;27.50;64.10;;;;;;5017634;28;20033;-59
2021/08/18 07:45:43;;;;;;;7.93;6.40;;;27.40;63.90;;;;;;5015815;28;20124;-60
2021/08/18 07:48:08;;;;;;;11.02;7.43;;;27.40;64.10;;;;;;5013161;28;20041;-61
2021/08/18 07:50:34;;;;;;;9.98;6.95;;;27.40;64.20;;;;;;5016445;28;20033;-61
2021/08/18 07:53:00;;;;;;;8.73;7.30;;;27.40;64.10;;;;;;5016885;28;20084;-61
2021/08/18 07:55:25;;;;;;;9.13;7.40;;;27.40;64.20;;;;;;5016196;28;20033;-61
2021/08/18 07:57:51;;;;;;;10.75;7.10;;;27.40;64.20;;;;;;5011678;28;20082;-61
2021/08/18 08:00:17;;;;;;;8.63;6.75;;;27.40;64.20;;;;;;5014599;28;20048;-60
2021/08/18 08:02:47;;;;;;;8.77;6.70;;;27.40;64.90;;;;;;5017880;28;20071;-62
2021/08/18 08:05:15;;;;;;;8.33;6.73;;;27.40;64.40;;;;;;5021265;28;20040;-63
2021/08/18 08:07:41;;;;;;;9.23;6.90;;;27.40;64.60;;;;;;5023573;28;20033;-59
2021/08/18 08:10:08;;;;;;;10.85;6.63;;;27.40;64.40;;;;;;5020766;28;20068;-62
2021/08/18 08:12:35;;;;;;;8.55;6.85;;;27.40;64.40;;;;;;5022949;28;20043;-61
2021/08/18 08:15:01;;;;;;;8.07;7.25;;;27.40;65.10;;;;;;5023776;28;20056;-61
2021/08/18 08:17:26;;;;;;;11.55;7.07;;;27.40;64.50;;;;;;5017868;28;20033;-60
2021/08/18 08:19:52;;;;;;;8.65;6.80;;;27.40;64.50;;;;;;5011055;28;20040;-60
2021/08/18 08:22:18;;;;;;;9.55;6.43;;;27.40;64.60;;;;;;5017059;28;20030;-61
2021/08/18 08:24:44;;;;;;;8.85;6.78;;;27.40;64.60;;;;;;5016980;28;20065;-61
2021/08/18 08:27:10;;;;;;;8.35;6.93;;;27.40;64.70;;;;;;5012855;28;20029;-61
2021/08/18 08:29:35;;;;;;;7.50;6.50;;;27.40;64.60;;;;;;5021993;28;20659;-60
2021/08/18 08:32:01;;;;;;;9.52;7.40;;;27.40;64.50;;;;;;5019008;28;20184;-61
2021/08/18 08:34:27;;;;;;;10.30;7.60;;;27.30;64.50;;;;;;5022009;28;20075;-61
2021/08/18 08:36:53;;;;;;;10.10;7.10;;;27.40;64.60;;;;;;5024078;28;20108;-61
2021/08/18 08:39:18;;;;;;;9.13;6.80;;;27.30;64.60;;;;;;5017048;28;20037;-62
2021/08/18 08:41:44;;;;;;;9.75;6.93;;;27.30;64.70;;;;;;5016851;28;20038;-59
2021/08/18 08:44:21;;;;;;;9.23;6.57;;;27.30;64.80;;;;;;5011703;28;20764;-60
2021/08/18 08:46:48;;;;;;;7.63;6.13;;;27.30;64.70;;;;;;5011292;28;20021;-58
2021/08/18 08:49:18;;;;;;;11.20;7.47;;;27.30;64.80;;;;;;5014148;28;20030;-58
2021/08/18 08:51:45;;;;;;;9.20;7.30;;;27.30;64.80;;;;;;5018537;28;20174;-60
2021/08/18 08:54:11;;;;;;;7.55;6.55;;;27.20;64.80;;;;;;5018483;28;20037;-60
2021/08/18 08:56:36;;;;;;;8.25;6.60;;;27.20;64.90;;;;;;5019730;28;20025;-59
2021/08/18 08:59:02;;;;;;;11.30;7.05;;;27.20;64.80;;;;;;5016630;28;20135;-60
2021/08/18 09:02:08;;;;;;;8.90;6.97;;;27.20;65.00;;;;;;5018994;28;20037;-60
2021/08/18 09:04:39;;;;;;;10.43;7.22;;;27.20;65.10;;;;;;5010243;28;20045;-60
2021/08/18 09:07:15;;;;;;;9.48;6.97;;;27.20;65.30;;;;;;5014853;28;20480;-61
2021/08/18 09:09:50;;;;;;;10.77;7.03;;;27.20;65.30;;;;;;5016520;28;20036;-60
2021/08/18 09:12:18;;;;;;;12.10;7.13;;;27.20;65.20;;;;;;5017309;28;20022;-60
2021/08/18 09:14:44;;;;;;;9.45;7.43;;;27.20;65.40;;;;;;5014017;28;20033;-60
2021/08/18 09:17:37;;;;;;;8.77;7.30;;;27.10;65.40;;;;;;5014610;28;20079;-60
2021/08/18 09:20:14;;;;;;;8.73;7.03;;;27.10;65.50;;;;;;5019593;28;20060;-60
2021/08/18 09:22:45;;;;;;;8.70;6.63;;;27.10;65.50;;;;;;5016369;28;20045;-60
2021/08/18 09:25:21;;;;;;;8.73;7.10;;;27.10;65.60;;;;;;5013568;28;20029;-61
2021/08/18 09:28:09;;;;;;;7.32;6.63;;;27.20;65.80;;;;;;5016123;28;20044;-61
2021/08/18 09:30:38;;;;;;;9.30;7.20;;;27.10;65.70;;;;;;5002418;28;20045;-61
2021/08/18 09:33:08;;;;;;;9.18;6.45;;;27.10;65.90;;;;;;5012513;28;20109;-61
2021/08/18 09:35:33;;;;;;;7.10;6.35;;;27.10;65.80;;;;;;5014448;28;20083;-61
2021/08/18 09:38:18;;;;;;;8.63;7.05;;;27.10;65.90;;;;;;5016874;28;20501;-61
2021/08/18 09:40:47;;;;;;;7.68;6.88;;;27.10;66.10;;;;;;5015929;28;20045;-61
2021/08/18 09:43:16;;;;;;;8.30;7.10;;;27.10;66.20;;;;;;5018263;28;20042;-60
2021/08/18 09:45:43;;;;;;;8.27;6.72;;;27.10;66.00;;;;;;5023195;28;20037;-60
2021/08/18 09:48:12;;;;;;;8.55;6.60;;;27.10;66.20;;;;;;5019299;28;20033;-60
2021/08/18 09:50:42;;;;;;;9.65;6.80;;;27.10;66.20;;;;;;5017815;28;20388;-60
2021/08/18 09:53:14;;;;;;;8.32;6.93;;;27.10;66.20;;;;;;5016114;28;20021;-60
2021/08/18 09:55:52;;;;;;;7.93;6.88;;;27.10;66.20;;;;;;5014697;28;20037;-60
2021/08/18 09:58:41;;;;;;;8.38;6.22;;;27.10;66.30;;;;;;5014521;28;20037;-60
2021/08/18 10:01:10;;;;;;;7.18;6.43;;;27.10;66.30;;;;;;5015367;28;20493;-60
2021/08/18 10:03:37;;;;;;;10.55;7.40;;;27.10;66.40;;;;;;5013836;28;20052;-61
2021/08/18 10:06:05;;;;;;;8.15;6.88;;;27.10;66.60;;;;;;5014836;28;20033;-61
2021/08/18 10:08:33;;;;;;;9.00;6.40;;;27.20;66.70;;;;;;5015685;28;20319;-60
2021/08/18 10:10:58;;;;;;;11.32;7.05;;;27.20;66.60;;;;;;5015121;28;20061;-60
2021/08/18 10:13:25;;;;;;;8.27;7.35;;;27.30;66.60;;;;;;5023790;28;20421;-61
2021/08/18 10:15:52;;;;;;;8.63;7.32;;;27.30;66.50;;;;;;5023272;28;20116;-61
2021/08/18 10:18:39;;;;;;;7.93;6.70;;;27.40;66.40;;;;;;5022737;28;20061;-60
2021/08/18 10:21:27;;;;;;;7.88;7.03;;;27.40;66.20;;;;;;5022171;28;20438;-61
2021/08/18 10:23:57;;;;;;;10.40;7.30;;;27.50;66.20;;;;;;5024227;28;20076;-60
2021/08/18 10:26:35;;;;;;;;;;;27.50;66.20;;;;;;5025110;28;20570;-60
2021/08/18 10:29:24;;;;;;;8.07;6.25;;;27.50;66.10;;;;;;5016535;28;19917;-61
2021/08/18 10:31:50;;;;;;;8.98;6.53;;;27.50;66.00;;;;;;5022514;28;20124;-61
2021/08/18 10:34:40;;;;;;;8.75;6.97;;;27.60;66.00;;;;;;5019750;28;20028;-61
2021/08/18 10:37:21;;;;;;;7.60;6.57;;;27.60;65.80;;;;;;5013519;28;20481;-60
2021/08/18 10:39:51;;;;;;;8.43;6.53;;;27.60;65.70;;;;;;5019559;28;20358;-60
2021/08/18 10:42:42;;;;;;;7.97;7.18;;;27.60;65.80;;;;;;5018893;28;20038;-60
2021/08/18 10:45:23;;;;;;;8.68;7.18;;;27.70;65.70;;;;;;5017892;28;20026;-60
2021/08/18 10:47:50;;;;;;;9.63;7.85;;;27.70;65.80;;;;;;5022969;28;20037;-61
2021/08/18 10:50:23;;;;;;;9.90;7.97;;;27.70;65.70;;;;;;5022431;28;20080;-60
2021/08/18 10:52:49;;;;;;;8.25;7.15;;;27.70;65.70;;;;;;5020108;28;20574;-60
2021/08/18 10:55:24;;;;;;;9.23;6.97;;;27.70;65.80;;;;;;5021238;28;20029;-60
2021/08/18 10:57:57;;;;;;;9.40;7.75;;;27.70;65.60;;;;;;5012627;28;20033;-60
2021/08/18 11:00:40;;;;;;;9.68;7.38;;;27.70;65.50;;;;;;5017435;28;20079;-59
2021/08/18 11:03:06;;;;;;;8.75;7.18;;;27.70;65.50;;;;;;5021464;28;20044;-62
2021/08/18 11:05:38;;;;;;;8.70;7.80;;;27.70;65.40;;;;;;5021024;28;20364;-61
2021/08/18 11:08:06;;;;;;;8.85;7.90;;;27.70;65.60;;;;;;5019788;28;20013;-61
2021/08/18 11:10:36;;;;;;;10.27;7.57;;;27.70;65.40;;;;;;5017622;28;20794;-60
2021/08/18 11:13:02;;;;;;;9.80;7.90;;;27.80;65.50;;;;;;5018577;28;20040;-60
2021/08/18 11:15:28;;;;;;;8.63;7.72;;;27.70;65.70;;;;;;5017908;28;20029;-62
2021/08/18 11:17:56;;;;;;;8.80;7.45;;;27.70;65.50;;;;;;5014457;28;20045;-59
2021/08/18 11:20:24;;;;;;;8.30;7.35;;;27.80;65.50;;;;;;5016219;28;20504;-61
2021/08/18 11:22:57;;;;;;;8.02;6.78;;;27.80;65.80;;;;;;5013253;28;20128;-62
2021/08/18 11:25:23;;;;;;;7.47;6.72;;;27.80;65.60;;;;;;5016936;28;20041;-63
2021/08/18 11:27:50;;;;;;;7.35;6.65;;;27.80;65.60;;;;;;5020878;28;20037;-64
2021/08/18 11:30:22;;;;;;;7.28;6.57;;;27.70;65.50;;;;;;5020014;28;20455;-61
2021/08/18 11:32:48;;;;;;;7.47;6.22;;;27.80;65.60;;;;;;5022807;28;20423;-61
2021/08/18 11:35:14;;;;;;;8.63;6.70;;;27.70;65.40;;;;;;5024211;28;20045;-62
2021/08/18 11:37:39;;;;;;;8.13;6.95;;;27.70;65.40;;;;;;5023411;28;20804;-62
2021/08/18 11:40:06;;;;;;;7.72;7.03;;;27.70;65.50;;;;;;5018623;28;20120;-62
2021/08/18 11:42:33;;;;;;;7.88;6.38;;;27.80;65.40;;;;;;5022874;28;20033;-62
2021/08/18 11:45:05;;;;;;;6.60;5.97;;;27.80;65.30;;;;;;5021604;28;20108;-61
2021/08/18 11:47:33;;;;;;;10.15;7.18;;;27.80;65.30;;;;;;5021859;28;20042;-57
2021/08/18 11:49:59;;;;;;;9.65;6.50;;;27.80;64.80;;;;;;5025642;28;20040;-62
2021/08/18 11:52:26;;;;;;;7.25;6.40;;;27.80;64.90;;;;;;5019514;28;20037;-60
2021/08/18 11:54:56;;;;;;;8.20;6.20;;;27.80;64.80;;;;;;5018584;28;20033;-61
2021/08/18 11:57:22;;;;;;;7.23;6.07;;;27.80;64.70;;;;;;5017300;28;20029;-62
2021/08/18 11:59:52;;;;;;;7.80;6.05;;;27.80;64.90;;;;;;5022313;28;20121;-61
2021/08/18 12:02:20;;;;;;;7.68;6.40;;;27.70;64.70;;;;;;5019891;28;20380;-63
2021/08/18 12:04:46;;;;;;;6.30;5.57;;;27.70;64.70;;;;;;5023797;28;20094;-59
2021/08/18 12:07:16;;;;;;;7.55;6.68;;;27.70;64.70;;;;;;5017883;28;20096;-60
2021/08/18 12:09:43;;;;;;;7.57;6.47;;;27.70;64.90;;;;;;5013320;28;20033;-59
2021/08/18 12:12:22;;;;;;;6.93;5.97;;;27.70;65.00;;;;;;5016396;28;20122;-59
2021/08/18 12:14:51;;;;;;;7.43;6.30;;;27.70;64.90;;;;;;5019122;28;20108;-61
2021/08/18 12:17:18;;;;;;;8.88;7.30;;;27.70;65.10;;;;;;5020515;28;20151;-60
2021/08/18 12:19:48;;;;;;;7.82;6.10;;;27.70;65.20;;;;;;5019434;28;20035;-60
2021/08/18 12:22:25;;;;;;;7.40;6.60;;;27.60;65.10;;;;;;5018124;28;20037;-59
2021/08/18 12:25:14;;;;;;;7.50;6.35;;;27.60;65.10;;;;;;5019673;28;20033;-61
2021/08/18 12:27:40;;;;;;;7.70;6.95;;;27.60;65.10;;;;;;5019443;28;21217;-60
2021/08/18 12:30:07;;;;;;;8.70;6.95;;;27.60;65.70;;;;;;5021217;28;20412;-58
2021/08/18 12:32:33;;;;;;;8.30;7.35;;;27.60;65.50;;;;;;5022293;28;20065;-61
2021/08/18 12:35:09;;;;;;;9.15;6.43;;;27.60;65.40;;;;;;5015619;28;20117;-61
2021/08/18 12:37:38;;;;;;;8.98;7.03;;;27.50;65.40;;;;;;5020361;28;20520;-59
2021/08/18 12:40:09;;;;;;;7.70;6.90;;;27.60;65.50;;;;;;5020486;28;20095;-60
2021/08/18 12:42:41;;;;;;;;;;;27.60;65.70;;;;;;5003162;28;20037;-60
2021/08/18 12:45:07;;;;;;;8.90;6.80;;;27.50;65.70;;;;;;5018311;28;19913;-59